Flight Track Log - Related Links

Times and Time Zones

All times are in EDT time to prevent confusion due to time zone crossing. See the SAS676 flight status page for this flight to view local times or setup timezone preferences in your user account.

Time Position Orientation Groundspeed Altitude Reporting Facility
EDT Latitude Longitude Course Direction KTS MPH feet Rate Location/Type
Thu 11:54:00 AM 50.5054 8.8529 22° Northeast  Level Estimated
Thu 11:55:00 AM 50.6011 8.9156 23° Northeast  Level Estimated
Thu 11:56:00 AM 50.6967 8.9785 23° Northeast  Level Estimated
Thu 11:57:00 AM 50.7924 9.0418 23° Northeast  Level Estimated
Thu 11:58:00 AM 50.8879 9.1053 23° Northeast  Level Estimated
Thu 11:59:00 AM 50.9835 9.1690 23° Northeast  Level Estimated
Thu 12:00:00 PM 51.0790 9.2330 23° Northeast  Level Estimated
Thu 12:01:00 PM 51.1745 9.2973 23° Northeast  Level Estimated
Thu 12:02:00 PM 51.2700 9.3618 23° Northeast  Level Estimated
Thu 12:03:00 PM 51.3654 9.4266 23° Northeast  Level Estimated
Thu 12:04:00 PM 51.4608 9.4917 23° Northeast  Level Estimated
Thu 12:05:00 PM 51.5561 9.5570 23° Northeast  Level Estimated
Thu 12:06:00 PM 51.6514 9.6226 23° Northeast  Level Estimated
Thu 12:07:00 PM 51.7467 9.6885 23° Northeast  Level Estimated
Thu 12:08:00 PM 51.8419 9.7547 23° Northeast  Level Estimated
Thu 12:09:00 PM 51.9371 9.8211 23° Northeast  Level Estimated
Thu 12:10:00 PM 52.0322 9.8879 23° Northeast  Level Estimated
Thu 12:11:00 PM 52.1274 9.9549 23° Northeast  Level Estimated
Thu 12:12:00 PM 52.2225 10.0222 23° Northeast  Level Estimated
Thu 12:13:00 PM 52.3175 10.0898 23° Northeast  Level Estimated
Thu 12:14:00 PM 52.4125 10.1577 24° Northeast  Level Estimated
Thu 12:15:00 PM 52.5075 10.2259 24° Northeast  Level Estimated
Thu 12:16:00 PM 52.6024 10.2943 24° Northeast  Level Estimated
Thu 12:17:00 PM 52.6973 10.3631 24° Northeast  Level Estimated
Thu 12:18:00 PM 52.7921 10.4322 24° Northeast  Level Estimated
Thu 12:19:00 PM 52.8869 10.5016 24° Northeast  Level Estimated
Thu 12:20:00 PM 52.9817 10.5712 24° Northeast  Level Estimated
Thu 12:21:00 PM 53.0764 10.6412 24° Northeast  Level Estimated
Thu 12:22:00 PM 53.1711 10.7115 24° Northeast  Level Estimated
Thu 12:23:00 PM 53.2658 10.7821 24° Northeast  Level Estimated
Thu 12:24:00 PM 53.3604 10.8530 24° Northeast  Level Estimated
Thu 12:25:00 PM 53.4637 10.9309 24° Northeast  Level Estimated
Thu 12:26:00 PM 53.5669 11.0091 24° Northeast  Level Estimated
Thu 12:27:00 PM 53.6701 11.0877 24° Northeast  Level Estimated
Thu 12:28:00 PM 53.7733 11.1667 24° Northeast  Level Estimated
Thu 12:29:00 PM 53.8764 11.2461 24° Northeast  Level Estimated
Thu 12:30:00 PM 53.9794 11.3259 24° Northeast  Level Estimated
Thu 12:31:00 PM 54.0824 11.4060 25° Northeast  Level Estimated
Thu 12:32:00 PM 54.1854 11.4866 25° Northeast  Level Estimated
Thu 12:33:00 PM 54.2883 11.5676 25° Northeast  Level Estimated
Thu 12:34:00 PM 54.3911 11.6489 25° Northeast  Level Estimated
Thu 12:35:00 PM 54.4939 11.7307 25° Northeast  Level Estimated
Thu 12:36:00 PM 54.5966 11.8129 25° Northeast  Level Estimated
Thu 12:37:00 PM 54.6993 11.8955 25° Northeast  Level Estimated
Thu 12:38:00 PM 54.8019 11.9786 25° Northeast  Level Estimated
Thu 12:39:00 PM 54.9045 12.0620 25° Northeast  Level Estimated
Thu 12:40:00 PM 55.0070 12.1459 25° Northeast  Level Estimated
Thu 12:41:00 PM 55.1094 12.2302 25° Northeast  Level Estimated
Thu 12:42:00 PM 55.2118 12.3150 25° Northeast  Level Estimated
Thu 12:43:00 PM 55.3141 12.4002 25° Northeast  Level Estimated
Thu 12:44:00 PM 55.4164 12.4858 25° Northeast  Level Estimated
Thu 12:45:00 PM 55.5186 12.5718 25° Northeast  Level Estimated
Thu 12:46:00 PM 55.6179 12.6560 26° Northeast  Level Estimated
Thu 12:47:00 PM 55.6179 12.6560 159° South  Level Estimated
Thu 12:48:00 PM 55.6179 12.6560 159° South  Level Estimated
Thu 12:49:00 PM 55.6179 12.6560 159° South  Level Estimated
Thu 12:50:00 PM 55.6179 12.6560 159° South  Level Estimated
Thu 12:51:00 PM 55.6179 12.6560 159° South  Level Estimated
Thu 12:52:00 PM 55.6179 12.6560 159° South  Level Estimated
Thu 12:53:00 PM 55.6179 12.6560 159° South  Level Estimated
Thu 12:54:00 PM 55.6179 12.6560 159° South  Level Estimated
Thu 12:55:00 PM 55.6179 12.6560 159° South  Level Estimated
Thu 12:56:00 PM 55.6179 12.6560 159° South  Level Estimated
Thu 12:57:00 PM 55.6179 12.6560 159° South  Level Estimated
Thu 12:58:00 PM 55.6179 12.6560 159° South  Level Estimated
Thu 12:59:00 PM 55.6179 12.6560 159° South  Level Estimated

Login

Don't have an account? Register now (free) for customized features, flight alerts, and more!